createdAt,value
2019-05-05T00:00:56.117Z,4.10
2019-05-05T00:06:05.188Z,4.47
2019-05-05T00:11:15.408Z,4.80
2019-05-05T00:16:36.785Z,4.67
2019-05-05T00:21:41.198Z,4.20
2019-05-05T00:26:46.121Z,4.70
2019-05-05T00:31:50.589Z,4.60
2019-05-05T00:36:55.360Z,4.73
2019-05-05T00:41:59.860Z,5.00
2019-05-05T00:47:24.622Z,5.30
2019-05-05T00:52:28.824Z,5.23
2019-05-05T00:57:34.797Z,4.90
2019-05-05T01:02:40.982Z,4.50
2019-05-05T01:07:45.328Z,5.23
2019-05-05T01:12:49.702Z,4.30
2019-05-05T01:17:55.299Z,4.63
2019-05-05T01:23:00.804Z,4.20
2019-05-05T01:28:05.277Z,4.50
2019-05-05T01:33:14.572Z,4.47
2019-05-05T01:38:20.635Z,4.60
2019-05-05T01:43:25.389Z,4.87
2019-05-05T01:48:29.848Z,4.57
2019-05-05T01:53:35.018Z,4.87
2019-05-05T01:58:39.491Z,4.70
2019-05-05T02:03:44.335Z,4.90
2019-05-05T02:08:48.791Z,4.73
2019-05-05T02:13:54.607Z,4.80
2019-05-05T02:18:59.083Z,4.90
2019-05-05T02:24:05.248Z,4.57
2019-05-05T02:29:17.716Z,4.50
2019-05-05T02:34:22.059Z,5.07
2019-05-05T02:39:26.439Z,5.10
2019-05-05T02:44:34.592Z,4.90
2019-05-05T02:49:38.158Z,5.23
2019-05-05T02:54:44.200Z,4.83
2019-05-05T02:59:56.451Z,5.10
2019-05-05T03:05:01.195Z,4.93
2019-05-05T03:10:07.648Z,5.13
2019-05-05T03:15:15.185Z,5.27
2019-05-05T03:20:20.239Z,5.23
2019-05-05T03:25:24.942Z,5.20
2019-05-05T03:30:29.446Z,4.87
2019-05-05T03:35:34.593Z,5.63
2019-05-05T03:40:43.651Z,5.70
2019-05-05T03:45:55.648Z,5.00
2019-05-05T03:51:01.069Z,4.83
2019-05-05T03:56:05.422Z,5.17
2019-05-05T04:01:32.121Z,4.30
2019-05-05T04:06:38.111Z,4.70
2019-05-05T04:11:44.371Z,4.50
2019-05-05T04:16:57.219Z,5.20
2019-05-05T04:22:04.202Z,4.43
2019-05-05T04:27:08.820Z,4.70
2019-05-05T04:32:14.057Z,4.50
2019-05-05T04:37:18.713Z,5.00
2019-05-05T04:42:24.558Z,4.50
2019-05-05T04:47:46.852Z,4.40
2019-05-05T04:52:54.039Z,4.80
2019-05-05T04:57:58.386Z,4.00
2019-05-05T05:03:04.617Z,4.40
2019-05-05T05:08:09.000Z,4.40
2019-05-05T05:13:13.850Z,4.28
2019-05-05T05:18:18.655Z,4.28
2019-05-05T05:23:24.631Z,4.00
2019-05-05T05:28:29.305Z,3.93
2019-05-05T05:33:34.429Z,4.10
2019-05-05T05:38:43.736Z,3.73
2019-05-05T05:44:03.595Z,4.10
2019-05-05T05:49:13.613Z,4.00
2019-05-05T05:54:18.043Z,3.80
2019-05-05T05:59:24.543Z,3.45
2019-05-05T06:04:28.475Z,3.60
2019-05-05T06:09:34.483Z,3.30
2019-05-05T06:14:39.312Z,3.37
2019-05-05T06:19:44.617Z,3.33
2019-05-05T06:24:49.133Z,3.70
2019-05-05T06:29:54.260Z,3.60
2019-05-05T06:34:59.222Z,3.20
2019-05-05T06:40:06.146Z,3.03
2019-05-05T06:45:21.221Z,3.30
2019-05-05T06:50:25.592Z,3.37
2019-05-05T06:55:30.044Z,3.37
2019-05-05T07:00:34.768Z,3.27
2019-05-05T07:05:39.251Z,3.27
2019-05-05T07:10:44.409Z,2.87
2019-05-05T07:15:50.077Z,3.10
2019-05-05T07:20:54.638Z,2.90
2019-05-05T07:25:59.048Z,2.67
2019-05-05T07:31:04.357Z,2.70
2019-05-05T07:36:16.409Z,2.70
2019-05-05T07:41:23.406Z,3.17
2019-05-05T07:46:27.426Z,3.03
2019-05-05T07:51:33.592Z,3.00
2019-05-05T07:56:38.176Z,2.90
2019-05-05T08:01:44.311Z,2.73
2019-05-05T08:06:48.563Z,2.50
2019-05-05T08:11:54.164Z,2.97
2019-05-05T08:17:00.399Z,2.30
2019-05-05T08:22:05.087Z,2.70
2019-05-05T08:27:14.425Z,1.90
2019-05-05T08:32:23.827Z,1.60
2019-05-05T08:37:28.543Z,2.63
2019-05-05T08:42:33.933Z,1.80
2019-05-05T08:47:38.447Z,1.70
2019-05-05T08:52:44.453Z,1.70
2019-05-05T08:57:49.203Z,1.70
2019-05-05T09:02:54.342Z,1.67
2019-05-05T09:07:58.847Z,1.80
2019-05-05T09:13:03.961Z,1.70
2019-05-05T09:18:09.289Z,1.73
2019-05-05T09:23:14.724Z,1.70
2019-05-05T09:28:24.623Z,1.63
2019-05-05T09:33:29.120Z,1.67
2019-05-05T09:38:34.714Z,1.77
2019-05-05T09:43:39.368Z,1.30
2019-05-05T09:48:44.148Z,1.43
2019-05-05T09:53:48.622Z,1.37
2019-05-05T09:58:54.497Z,1.80
2019-05-05T10:04:13.869Z,1.60
2019-05-05T10:09:18.293Z,1.33
2019-05-05T10:14:22.651Z,1.50
2019-05-05T10:19:28.773Z,1.30
2019-05-05T10:24:40.750Z,1.43
2019-05-05T10:29:45.762Z,1.60
2019-05-05T10:34:53.534Z,1.67
2019-05-05T10:40:03.641Z,1.50
2019-05-05T10:45:10.674Z,1.50
2019-05-05T10:50:17.040Z,1.70
2019-05-05T10:55:24.091Z,2.10
2019-05-05T11:00:41.020Z,1.43
2019-05-05T11:05:48.810Z,1.40
2019-05-05T11:10:57.964Z,1.27
2019-05-05T11:16:04.354Z,1.40
2019-05-05T11:21:08.907Z,1.40
2019-05-05T11:26:14.369Z,1.27
2019-05-05T11:31:19.449Z,1.23
2019-05-05T11:36:41.523Z,1.20
2019-05-05T11:41:45.979Z,1.60
2019-05-05T11:46:50.620Z,1.70
2019-05-05T11:51:55.017Z,1.10
2019-05-05T11:57:00.647Z,1.30
2019-05-05T12:02:06.023Z,1.40
2019-05-05T12:07:11.286Z,1.10
2019-05-05T12:12:16.276Z,1.50
2019-05-05T12:17:36.640Z,1.50
2019-05-05T12:22:41.171Z,1.27
2019-05-05T12:28:04.379Z,1.40
2019-05-05T12:33:09.319Z,1.60
2019-05-05T12:38:13.728Z,1.10
2019-05-05T12:43:18.153Z,1.20
2019-05-05T12:48:24.238Z,1.23
2019-05-05T12:53:28.604Z,1.10
2019-05-05T12:58:33.588Z,1.13
2019-05-05T13:03:40.549Z,1.50
2019-05-05T13:08:44.976Z,1.40
2019-05-05T13:13:49.375Z,1.10
2019-05-05T13:18:54.010Z,1.73
2019-05-05T13:24:09.411Z,1.60
2019-05-05T13:29:14.022Z,1.80
2019-05-05T13:34:19.622Z,1.87
2019-05-05T13:39:24.879Z,1.97
2019-05-05T13:44:49.984Z,2.00
2019-05-05T13:49:56.023Z,1.70
2019-05-05T13:55:00.432Z,1.70
2019-05-05T14:00:06.645Z,1.70
2019-05-05T14:05:13.286Z,1.60
2019-05-05T14:10:19.674Z,1.50
2019-05-05T14:15:24.422Z,1.40
2019-05-05T14:20:28.885Z,1.70
2019-05-05T14:25:33.407Z,1.97
2019-05-05T14:30:56.015Z,1.63
2019-05-05T14:36:04.993Z,1.70
2019-05-05T14:41:09.491Z,1.50
2019-05-05T14:46:14.482Z,1.80
2019-05-05T14:51:19.091Z,1.70
2019-05-05T14:56:35.782Z,1.67
2019-05-05T15:01:29.585Z,1.90
2019-05-05T15:06:44.486Z,1.60
2019-05-05T15:12:06.935Z,1.63
2019-05-05T15:17:11.396Z,1.40
2019-05-05T15:22:15.832Z,2.00
2019-05-05T15:27:20.247Z,1.50
2019-05-05T15:32:24.737Z,1.50
2019-05-05T15:37:29.091Z,1.70
2019-05-05T15:42:33.590Z,1.57
2019-05-05T15:47:37.957Z,1.80
2019-05-05T15:52:44.041Z,1.60
2019-05-05T15:57:48.863Z,1.70
2019-05-05T16:02:54.847Z,1.70
2019-05-05T16:08:00.309Z,1.80
2019-05-05T16:13:04.925Z,1.80
2019-05-05T16:18:13.792Z,1.43
2019-05-05T16:23:25.602Z,1.70
2019-05-05T16:28:29.963Z,1.70
2019-05-05T16:33:34.377Z,1.43
2019-05-05T16:38:38.680Z,1.50
2019-05-05T16:43:44.219Z,1.50
2019-05-05T16:48:48.767Z,1.53
2019-05-05T16:53:53.887Z,1.40
2019-05-05T16:58:59.219Z,1.50
2019-05-05T17:04:11.225Z,1.47
2019-05-05T17:09:09.718Z,1.53
2019-05-05T17:14:23.462Z,1.60
2019-05-05T17:19:29.591Z,1.70
2019-05-05T17:24:34.451Z,1.47
2019-05-05T17:29:38.957Z,1.60
2019-05-05T17:34:44.875Z,1.60
2019-05-05T17:39:51.204Z,1.50
2019-05-05T17:45:03.791Z,1.77
2019-05-05T17:50:11.801Z,2.10
2019-05-05T17:55:29.717Z,1.70
2019-05-05T18:00:35.738Z,1.70
2019-05-05T18:05:59.090Z,1.83
2019-05-05T18:11:05.071Z,1.80
2019-05-05T18:16:09.560Z,1.90
2019-05-05T18:21:14.319Z,2.07
2019-05-05T18:26:18.741Z,2.13
2019-05-05T18:31:24.299Z,1.87
2019-05-05T18:36:29.526Z,1.80
2019-05-05T18:41:35.609Z,2.00
2019-05-05T18:46:40.098Z,2.20
2019-05-05T18:51:45.284Z,2.20
2019-05-05T18:56:49.784Z,2.20
2019-05-05T19:02:07.781Z,1.90
2019-05-05T19:07:14.948Z,1.93
2019-05-05T19:12:19.376Z,2.70
2019-05-05T19:17:23.938Z,2.77
2019-05-05T19:22:29.326Z,2.43
2019-05-05T19:27:33.732Z,2.70
2019-05-05T19:32:38.092Z,2.57
2019-05-05T19:37:44.431Z,2.70
2019-05-05T19:42:48.578Z,2.40
2019-05-05T19:47:53.009Z,2.80
2019-05-05T19:52:57.390Z,2.90
2019-05-05T19:58:03.540Z,2.50
2019-05-05T20:03:07.905Z,2.70
2019-05-05T20:08:14.504Z,2.63
2019-05-05T20:13:18.351Z,2.30
2019-05-05T20:18:24.890Z,2.70
2019-05-05T20:23:29.484Z,2.70
2019-05-05T20:28:33.990Z,2.43
2019-05-05T20:33:40.026Z,2.30
2019-05-05T20:38:49.063Z,2.00
2019-05-05T20:43:54.212Z,2.30
2019-05-05T20:48:58.845Z,2.50
2019-05-05T20:54:04.778Z,2.00
2019-05-05T20:59:09.426Z,2.10
2019-05-05T21:04:14.156Z,2.00
2019-05-05T21:09:18.515Z,2.30
2019-05-05T21:14:33.670Z,2.20
2019-05-05T21:19:29.101Z,2.30
2019-05-05T21:24:33.555Z,2.00
2019-05-05T21:29:42.182Z,2.20
2019-05-05T21:34:45.018Z,2.20
2019-05-05T21:39:49.497Z,2.40
2019-05-05T21:44:57.404Z,2.40
2019-05-05T21:50:03.736Z,2.63
2019-05-05T21:55:10.071Z,2.47
2019-05-05T22:00:34.632Z,2.60
2019-05-05T22:05:41.420Z,3.20
2019-05-05T22:10:45.829Z,2.90
2019-05-05T22:15:50.165Z,2.70
2019-05-05T22:21:14.097Z,3.03
2019-05-05T22:26:18.702Z,3.07
2019-05-05T22:31:23.825Z,3.37
2019-05-05T22:36:28.268Z,3.27
2019-05-05T22:41:33.773Z,3.20
2019-05-05T22:46:38.378Z,3.30
2019-05-05T22:51:44.715Z,3.47
2019-05-05T22:56:48.791Z,3.00
2019-05-05T23:01:54.164Z,3.00
2019-05-05T23:07:00.295Z,3.00
2019-05-05T23:12:04.818Z,2.87
2019-05-05T23:17:10.820Z,3.60
2019-05-05T23:22:24.079Z,3.30
2019-05-05T23:27:48.925Z,3.17
2019-05-05T23:32:54.809Z,3.00
2019-05-05T23:37:59.377Z,2.93
2019-05-05T23:43:04.486Z,3.10
2019-05-05T23:48:09.441Z,3.23
2019-05-05T23:53:13.923Z,3.13
2019-05-05T23:58:18.314Z,3.40
